메인 페이지
METAR-TAF:

METAR-TAF

공항 :

니노이 아키노 국제공항

마닐라, 필리핀

위도: 14-31N, 경도: 121-00E, 고도: 14m

현재 날씨관측

예보는 30분 전, 17:00시(UTC)에 발표되었습니다.
5kt
온도 27°C
습도 100%
기압 1010 hPa
시정 10km 이상
고도 2200ft 상공 구름 조금, 적란운.
고도 2300ft 상공 구름 조금
고도 10000ft 상공 구름 보통

METAR: RPLL 171700Z 28005KT 9999 FEW022CB FEW023 SCT100 27/27 Q1010 NOSIG RMK A2983 CB S W/ OCNL LTG

시각: 01:30 (17:30 UTC)

예보

예보는 6 시간 30분 전, 11:00시(UTC)에 발표되었습니다.
예보 대상 시간: 17일 12시부터 18일 18시까지 (UTC)
북동6kt
시정 10km 이상
고도 2500ft 상공 구름 조금
고도 10000ft 상공 구름 보통
일시적
17일 12시부터 17일 18시까지 (UTC)
6kt
시정: 9000m
고도 2200ft 상공 구름 조금, 적란운.
고도 10000ft 상공 구름 많음
뇌우, 약한비
일시적
17일 18시부터 17일 24시까지 (UTC)
kt
고도 2300ft 상공 구름 보통
고도 10000ft 상공 구름 많음

TAF: RPLL 171100Z 1712/1818 05006KT 9999 FEW025 SCT100 TX33/1805Z TN27/1721Z TEMPO 1712/1718 10006KT 9000 -TSRA FEW022CB BKN100 TEMPO 1718/1724 00000KT SCT023 BKN100

4,000개 이상의 공항 관측 자료 및 예보 (METAR 및 TAF 보고).

지도상에서 검색 가능한 기상관측소가 노란 점과 빨간 점으로 표시되어 있습니다.

기상관측소 명을 보려면 표시 위로 마우스를 이동하세요.

날씨 관측과 예보를 보려면 클릭하세요.

지도 변경 : 확대하려면 엑스 표시가 있는 녹색 버튼, 축소하려면 빼기 표시가 있는 녹색 버튼, 다음 페이지의 지도를 보려면 녹색 화살표를 클릭하세요.


METAR-TAF: